createdAt,value
2022-10-18T00:00:30.130Z,67.15
2022-10-18T00:01:33.088Z,66.94
2022-10-18T00:02:36.044Z,66.12
2022-10-18T00:03:39.627Z,67.25
2022-10-18T00:04:42.643Z,67.74
2022-10-18T00:05:45.507Z,66.74
2022-10-18T00:06:48.535Z,67.63
2022-10-18T00:07:51.382Z,67.76
2022-10-18T00:08:54.228Z,67.42
2022-10-18T00:09:57.120Z,68.24
2022-10-18T00:11:00.207Z,68.58
2022-10-18T00:12:03.201Z,67.20
2022-10-18T00:13:06.106Z,66.89
2022-10-18T00:14:09.569Z,66.50
2022-10-18T00:15:12.680Z,66.16
2022-10-18T00:16:17.566Z,66.18
2022-10-18T00:17:20.474Z,66.35
2022-10-18T00:18:24.063Z,67.19
2022-10-18T00:19:29.198Z,66.54
2022-10-18T00:20:32.480Z,66.50
2022-10-18T00:21:35.511Z,66.91
2022-10-18T00:22:40.578Z,67.21
2022-10-18T00:23:44.255Z,67.15
2022-10-18T00:24:47.230Z,66.63
2022-10-18T00:25:50.120Z,67.74
2022-10-18T00:26:53.161Z,68.60
2022-10-18T00:27:55.932Z,68.34
2022-10-18T00:29:04.588Z,68.71
2022-10-18T00:30:07.887Z,67.41
2022-10-18T00:31:19.461Z,68.30
2022-10-18T00:32:22.497Z,68.18
2022-10-18T00:33:25.362Z,68.04
2022-10-18T00:34:28.156Z,67.06
2022-10-18T00:35:31.094Z,67.38
2022-10-18T00:36:35.162Z,68.63
2022-10-18T00:37:37.997Z,69.87
2022-10-18T00:39:01.583Z,69.54
2022-10-18T00:40:05.275Z,69.52
2022-10-18T00:41:10.616Z,69.48
2022-10-18T00:42:22.125Z,70.01
2022-10-18T00:43:24.779Z,70.29
2022-10-18T00:44:28.313Z,70.46
2022-10-18T00:45:31.102Z,70.33
2022-10-18T00:46:38.301Z,71.23
2022-10-18T00:47:41.603Z,71.77
2022-10-18T00:48:44.591Z,71.79
2022-10-18T00:49:53.244Z,71.41
2022-10-18T00:50:56.010Z,71.38
2022-10-18T00:52:03.160Z,71.30
2022-10-18T00:53:10.329Z,71.46
2022-10-18T00:54:19.194Z,71.72
2022-10-18T00:55:22.454Z,71.77
2022-10-18T00:56:25.908Z,72.01
2022-10-18T00:57:32.307Z,71.51
2022-10-18T00:58:36.351Z,72.04
2022-10-18T00:59:39.509Z,71.59
2022-10-18T01:00:42.748Z,71.68
2022-10-18T01:01:47.398Z,73.27
2022-10-18T01:02:52.234Z,72.87
2022-10-18T01:03:56.047Z,72.40
2022-10-18T01:04:58.704Z,72.67
2022-10-18T01:06:01.339Z,72.57
2022-10-18T01:07:22.983Z,72.71
2022-10-18T01:08:34.812Z,72.70
2022-10-18T01:10:09.612Z,72.93
2022-10-18T01:11:15.852Z,72.71
2022-10-18T01:12:41.650Z,72.29
2022-10-18T01:13:47.129Z,71.75
2022-10-18T01:15:14.104Z,73.03
2022-10-18T01:16:44.131Z,72.25
2022-10-18T01:18:06.414Z,71.86
2022-10-18T01:19:17.613Z,72.90
2022-10-18T01:20:48.652Z,72.34
2022-10-18T01:21:53.977Z,71.65
2022-10-18T01:23:12.006Z,71.84
2022-10-18T01:24:32.904Z,71.94
2022-10-18T01:25:57.330Z,71.07
2022-10-18T01:27:24.369Z,71.35
2022-10-18T01:28:28.423Z,71.13
2022-10-18T01:30:04.441Z,70.72
2022-10-18T01:31:21.457Z,70.82
2022-10-18T01:32:31.414Z,70.59
2022-10-18T01:33:49.515Z,70.22
2022-10-18T01:34:56.172Z,70.83
2022-10-18T01:36:28.181Z,70.77
2022-10-18T01:37:33.296Z,71.48
2022-10-18T01:38:38.810Z,71.43
2022-10-18T01:39:45.451Z,71.45
2022-10-18T01:40:50.581Z,71.55
2022-10-18T01:41:54.750Z,71.22
2022-10-18T01:42:57.678Z,71.72
2022-10-18T01:44:03.776Z,71.96
2022-10-18T01:45:08.773Z,72.42
2022-10-18T01:46:16.178Z,71.67
2022-10-18T01:47:20.532Z,71.96
2022-10-18T01:48:24.132Z,73.20
2022-10-18T01:49:27.573Z,72.02
2022-10-18T01:50:32.663Z,71.59
2022-10-18T01:51:35.637Z,72.25
2022-10-18T01:52:51.250Z,72.35
2022-10-18T01:53:54.475Z,71.49
2022-10-18T01:54:59.012Z,71.36
2022-10-18T01:56:19.891Z,71.27
2022-10-18T01:57:42.169Z,72.07
2022-10-18T01:58:57.288Z,72.05
2022-10-18T02:00:19.389Z,72.28
2022-10-18T02:01:46.006Z,71.57
2022-10-18T02:02:56.805Z,71.38
2022-10-18T02:04:11.739Z,71.39
2022-10-18T02:05:33.530Z,71.49
2022-10-18T02:06:44.144Z,72.59
2022-10-18T02:08:22.944Z,72.23
2022-10-18T02:09:43.175Z,72.02
2022-10-18T02:10:57.048Z,72.15
2022-10-18T02:12:02.282Z,72.10
2022-10-18T02:13:05.329Z,72.87
2022-10-18T02:14:11.572Z,72.37
2022-10-18T02:15:19.489Z,72.10
2022-10-18T02:16:45.067Z,72.83
2022-10-18T02:17:47.772Z,72.33
2022-10-18T02:20:32.738Z,72.64
2022-10-18T02:21:38.292Z,72.65
2022-10-18T02:22:43.093Z,73.32
2022-10-18T02:23:47.333Z,72.66
2022-10-18T02:24:54.408Z,72.54
2022-10-18T02:25:57.060Z,72.51
2022-10-18T02:26:59.770Z,72.61
2022-10-18T02:28:04.611Z,72.19
2022-10-18T02:29:08.665Z,72.02
2022-10-18T02:30:16.253Z,71.49
2022-10-18T02:31:27.331Z,71.64
2022-10-18T02:32:38.934Z,71.83
2022-10-18T02:33:48.971Z,72.28
2022-10-18T02:35:20.328Z,73.13
2022-10-18T02:36:28.117Z,73.29
2022-10-18T02:37:35.537Z,73.15
2022-10-18T02:38:41.650Z,74.08
2022-10-18T02:39:48.252Z,73.78
2022-10-18T02:40:54.213Z,73.44
2022-10-18T02:41:58.092Z,73.75
2022-10-18T02:43:00.726Z,74.12
2022-10-18T02:44:03.523Z,73.21
2022-10-18T02:45:06.994Z,73.86
2022-10-18T02:46:09.746Z,74.08
2022-10-18T02:47:12.984Z,72.17
2022-10-18T02:48:15.692Z,72.34
2022-10-18T02:49:18.505Z,71.78
2022-10-18T02:50:21.174Z,71.15
2022-10-18T02:51:23.888Z,70.32
2022-10-18T02:52:26.617Z,70.66
2022-10-18T02:53:29.221Z,69.16
2022-10-18T02:54:31.974Z,69.01
2022-10-18T02:55:34.610Z,69.75
2022-10-18T02:56:37.412Z,70.07
2022-10-18T02:57:40.029Z,71.01
2022-10-18T02:58:42.840Z,71.29
2022-10-18T02:59:45.620Z,70.40
2022-10-18T03:00:50.963Z,70.50
2022-10-18T03:01:53.618Z,70.39
2022-10-18T03:02:56.347Z,70.25
2022-10-18T03:03:59.097Z,69.74
2022-10-18T03:05:01.829Z,69.78
2022-10-18T03:06:04.839Z,70.62
2022-10-18T03:07:07.844Z,69.57
2022-10-18T03:08:10.989Z,70.10
2022-10-18T03:09:13.739Z,70.16
2022-10-18T03:10:16.616Z,70.52
2022-10-18T03:11:19.321Z,70.73
2022-10-18T03:12:22.006Z,70.88
2022-10-18T03:13:24.736Z,70.80
2022-10-18T03:14:27.606Z,70.38
2022-10-18T03:15:30.166Z,70.92
2022-10-18T03:16:34.172Z,71.05
2022-10-18T03:17:36.751Z,71.30
2022-10-18T03:18:40.264Z,71.26
2022-10-18T03:19:42.891Z,71.41
2022-10-18T03:20:45.586Z,71.33
2022-10-18T03:21:48.370Z,71.74
2022-10-18T03:22:51.051Z,71.84
2022-10-18T03:23:53.877Z,72.34
2022-10-18T03:24:56.499Z,72.78
2022-10-18T03:25:59.194Z,72.26
2022-10-18T03:27:02.593Z,72.15
2022-10-18T03:28:09.323Z,72.14
2022-10-18T03:29:12.412Z,72.70
2022-10-18T03:30:15.030Z,72.89
2022-10-18T03:31:18.655Z,72.99
2022-10-18T03:32:21.329Z,72.94
2022-10-18T03:33:23.932Z,73.35
2022-10-18T03:34:26.730Z,73.12
2022-10-18T03:35:29.451Z,73.17
2022-10-18T03:36:33.931Z,73.26
2022-10-18T03:37:37.245Z,73.75
2022-10-18T03:38:40.940Z,74.85
2022-10-18T03:39:43.657Z,74.06
2022-10-18T03:40:46.342Z,73.69
2022-10-18T03:41:49.090Z,73.60
2022-10-18T03:42:51.642Z,73.77
2022-10-18T03:43:54.291Z,73.71
2022-10-18T03:44:57.208Z,73.58
2022-10-18T03:46:00.447Z,73.83
2022-10-18T03:47:03.168Z,74.43
2022-10-18T03:48:06.409Z,74.60
2022-10-18T03:49:08.987Z,74.39
2022-10-18T03:50:11.929Z,74.24
2022-10-18T03:51:14.541Z,74.08
2022-10-18T03:52:17.246Z,74.04
2022-10-18T03:53:19.850Z,74.40
2022-10-18T03:54:22.650Z,74.41
2022-10-18T03:55:25.487Z,74.52
2022-10-18T03:56:28.140Z,74.22
2022-10-18T03:57:30.835Z,74.43
2022-10-18T03:59:41.328Z,74.18
2022-10-18T04:00:44.130Z,74.41
2022-10-18T04:01:50.375Z,74.96
2022-10-18T04:02:55.115Z,74.88
2022-10-18T04:03:58.729Z,75.29
2022-10-18T04:05:01.451Z,75.29
2022-10-18T04:06:04.211Z,75.64
2022-10-18T04:07:06.945Z,75.87
2022-10-18T04:08:09.674Z,76.15
2022-10-18T04:09:12.619Z,75.58
2022-10-18T04:10:15.489Z,75.51
2022-10-18T04:11:19.191Z,75.97
2022-10-18T04:12:22.091Z,76.19
2022-10-18T04:13:24.784Z,76.26
2022-10-18T04:14:27.446Z,76.43
2022-10-18T04:15:30.052Z,76.06
2022-10-18T04:16:32.816Z,76.20
2022-10-18T04:17:35.551Z,76.42
2022-10-18T04:18:38.532Z,76.87
2022-10-18T04:19:41.969Z,76.46
2022-10-18T04:20:44.916Z,76.17
2022-10-18T04:21:47.523Z,76.83
2022-10-18T04:22:50.659Z,76.48
2022-10-18T04:23:53.310Z,75.93
2022-10-18T04:24:57.044Z,75.71
2022-10-18T04:26:03.299Z,75.34
2022-10-18T04:27:07.071Z,75.76
2022-10-18T04:28:09.875Z,76.30
2022-10-18T04:29:12.644Z,76.47
2022-10-18T04:30:15.763Z,76.00
2022-10-18T04:31:18.329Z,75.30
2022-10-18T04:32:21.197Z,75.40
2022-10-18T04:33:23.830Z,75.09
2022-10-18T04:34:26.752Z,75.13
2022-10-18T04:35:29.282Z,75.52
2022-10-18T04:36:32.444Z,74.58
2022-10-18T04:37:36.038Z,74.58
2022-10-18T04:39:51.279Z,74.02
2022-10-18T04:40:56.520Z,74.09
2022-10-18T04:41:59.175Z,74.04
2022-10-18T04:43:01.702Z,74.53
2022-10-18T04:44:04.288Z,75.03
2022-10-18T04:45:07.504Z,73.67
2022-10-18T04:46:10.257Z,74.04
2022-10-18T04:47:16.449Z,74.14
2022-10-18T04:48:19.455Z,73.38
2022-10-18T04:49:22.039Z,74.41
2022-10-18T04:50:24.650Z,73.78
2022-10-18T04:51:28.726Z,73.48
2022-10-18T04:52:31.465Z,72.26
2022-10-18T04:53:34.005Z,73.02
2022-10-18T04:54:37.026Z,72.38
2022-10-18T04:55:39.748Z,72.62
2022-10-18T04:56:42.364Z,72.62
2022-10-18T04:57:45.407Z,73.85
2022-10-18T04:58:48.272Z,73.56
2022-10-18T04:59:50.905Z,72.54
2022-10-18T05:00:53.678Z,72.33
2022-10-18T05:01:56.427Z,73.08
2022-10-18T05:02:59.272Z,71.94
2022-10-18T05:04:01.950Z,71.76
2022-10-18T05:05:09.130Z,72.58
2022-10-18T05:06:14.507Z,72.38
2022-10-18T05:07:18.018Z,72.71
2022-10-18T05:08:20.995Z,69.79
2022-10-18T05:09:24.948Z,68.17
2022-10-18T05:10:27.553Z,71.91
2022-10-18T05:11:30.133Z,70.27
2022-10-18T05:12:33.168Z,70.24
2022-10-18T05:13:35.952Z,67.71
2022-10-18T05:14:38.601Z,70.15
2022-10-18T05:15:41.247Z,70.89
2022-10-18T05:16:43.821Z,71.83
2022-10-18T05:17:46.731Z,68.02
2022-10-18T05:18:50.607Z,70.00
2022-10-18T05:19:53.224Z,71.69
2022-10-18T05:20:55.905Z,71.54
2022-10-18T05:23:01.199Z,71.97
2022-10-18T05:24:04.129Z,70.95
2022-10-18T05:25:07.291Z,71.09
2022-10-18T05:26:09.876Z,70.58
2022-10-18T05:27:12.457Z,70.00
2022-10-18T05:28:37.989Z,70.64
2022-10-18T05:29:38.656Z,70.92
2022-10-18T05:30:41.667Z,70.88
2022-10-18T05:31:44.291Z,70.95
2022-10-18T05:32:46.895Z,70.96
2022-10-18T05:33:49.481Z,70.79
2022-10-18T05:34:52.240Z,71.38
2022-10-18T05:35:54.889Z,71.35
2022-10-18T05:36:58.464Z,70.01
2022-10-18T05:38:06.087Z,70.70
2022-10-18T05:39:08.831Z,71.71
2022-10-18T05:40:11.890Z,71.18
2022-10-18T05:41:14.785Z,71.64
2022-10-18T05:42:17.430Z,71.42
2022-10-18T05:43:20.134Z,70.92
2022-10-18T05:44:22.806Z,69.13
2022-10-18T05:45:25.614Z,70.32
2022-10-18T05:46:28.854Z,71.12
2022-10-18T05:47:32.142Z,70.42
2022-10-18T05:48:35.578Z,67.31
2022-10-18T05:49:38.202Z,71.58
2022-10-18T05:50:44.351Z,68.92
2022-10-18T05:51:46.904Z,66.40
2022-10-18T05:52:49.544Z,65.07
2022-10-18T05:53:53.194Z,67.33
2022-10-18T05:54:55.905Z,68.88
2022-10-18T05:56:01.919Z,69.59
2022-10-18T05:57:05.073Z,67.67
2022-10-18T05:58:11.340Z,69.55
2022-10-18T05:59:14.020Z,70.48
2022-10-18T06:00:17.497Z,70.16
2022-10-18T06:01:20.800Z,69.98
2022-10-18T06:02:23.669Z,70.50
2022-10-18T06:03:27.855Z,71.14
2022-10-18T06:04:30.780Z,69.73
2022-10-18T06:05:33.380Z,66.50
2022-10-18T06:06:37.532Z,67.56
2022-10-18T06:07:40.110Z,69.07
2022-10-18T06:08:44.053Z,69.63
2022-10-18T06:09:46.691Z,65.91
2022-10-18T06:10:49.302Z,69.19
2022-10-18T06:11:52.017Z,64.95
2022-10-18T06:12:54.707Z,66.90
2022-10-18T06:13:58.242Z,67.92
2022-10-18T06:15:00.757Z,69.35
2022-10-18T06:16:03.262Z,69.37
2022-10-18T06:17:05.961Z,68.81
2022-10-18T06:18:08.531Z,67.17
2022-10-18T06:19:11.319Z,69.24
2022-10-18T06:20:13.901Z,67.89
2022-10-18T06:21:17.628Z,67.83
2022-10-18T06:22:20.434Z,65.82
2022-10-18T06:23:23.037Z,66.59
2022-10-18T06:24:26.864Z,67.51
2022-10-18T06:25:29.455Z,67.90
2022-10-18T06:26:32.009Z,68.81
2022-10-18T06:27:35.583Z,69.00
2022-10-18T06:28:38.876Z,67.94
2022-10-18T06:29:41.863Z,66.12
2022-10-18T06:30:44.820Z,68.77
2022-10-18T06:31:47.494Z,69.14
2022-10-18T06:32:50.147Z,66.45
2022-10-18T06:33:52.728Z,66.96
2022-10-18T06:34:55.325Z,67.99
2022-10-18T06:36:00.306Z,67.53
2022-10-18T06:37:03.353Z,68.24
2022-10-18T06:38:06.427Z,69.21
2022-10-18T06:39:09.063Z,69.03
2022-10-18T06:40:12.247Z,69.59
2022-10-18T06:41:15.410Z,68.88
2022-10-18T06:42:20.417Z,67.89
2022-10-18T06:43:25.843Z,69.12
2022-10-18T06:44:28.433Z,69.17
2022-10-18T06:45:31.147Z,69.29
2022-10-18T06:46:33.895Z,69.04
2022-10-18T06:47:36.776Z,68.54
2022-10-18T06:48:40.015Z,66.23
2022-10-18T06:49:42.769Z,67.78
2022-10-18T06:50:58.530Z,69.23
2022-10-18T06:52:01.267Z,69.92
2022-10-18T06:53:06.531Z,69.14
2022-10-18T06:54:24.535Z,67.34
2022-10-18T06:55:27.277Z,67.38
2022-10-18T06:56:30.851Z,67.43
2022-10-18T06:57:33.527Z,67.61
2022-10-18T06:58:37.071Z,67.60
2022-10-18T06:59:39.779Z,65.32
2022-10-18T07:00:42.511Z,64.69
2022-10-18T07:01:45.334Z,65.88
2022-10-18T07:02:50.627Z,66.62
2022-10-18T07:03:54.873Z,66.75
2022-10-18T07:04:57.629Z,63.77
2022-10-18T07:06:05.160Z,64.29
2022-10-18T07:07:08.024Z,65.83
2022-10-18T07:08:10.805Z,64.36
2022-10-18T07:09:13.517Z,63.15
2022-10-18T07:10:16.465Z,63.99
2022-10-18T07:11:21.892Z,63.53
2022-10-18T07:12:24.768Z,65.96
2022-10-18T07:13:33.115Z,65.16
2022-10-18T07:14:36.326Z,63.56
2022-10-18T07:15:39.099Z,64.58
2022-10-18T07:16:41.845Z,62.18
2022-10-18T07:17:48.063Z,62.92
2022-10-18T07:18:51.857Z,61.13
2022-10-18T07:19:54.715Z,62.62
2022-10-18T07:20:57.438Z,63.41
2022-10-18T07:22:00.106Z,63.31
2022-10-18T07:23:03.552Z,62.75
2022-10-18T07:24:06.553Z,61.70
2022-10-18T07:25:12.579Z,54.14
2022-10-18T07:26:18.455Z,54.60
2022-10-18T07:27:21.894Z,51.79
2022-10-18T07:28:29.078Z,50.81
2022-10-18T07:29:32.246Z,55.66
2022-10-18T07:30:34.990Z,55.65
2022-10-18T07:31:41.530Z,52.57
2022-10-18T07:32:44.134Z,50.16
2022-10-18T07:33:46.947Z,50.70
2022-10-18T07:34:49.605Z,49.02
2022-10-18T07:35:52.249Z,47.51
2022-10-18T07:36:54.914Z,48.71
2022-10-18T07:37:57.618Z,49.03
2022-10-18T07:39:00.200Z,47.58
2022-10-18T07:40:03.474Z,47.87
2022-10-18T07:41:07.957Z,47.95
2022-10-18T07:42:10.591Z,46.93
2022-10-18T07:43:13.215Z,46.95
2022-10-18T07:44:19.414Z,45.41
2022-10-18T07:45:22.367Z,47.07
2022-10-18T07:46:25.299Z,47.65
2022-10-18T07:47:30.124Z,46.42
2022-10-18T07:48:35.503Z,44.57
2022-10-18T07:49:38.490Z,43.86
2022-10-18T07:50:41.237Z,45.02
2022-10-18T07:51:43.966Z,42.79
2022-10-18T07:52:46.662Z,42.61
2022-10-18T07:53:49.722Z,42.11
2022-10-18T07:54:52.288Z,41.74
2022-10-18T07:55:59.333Z,43.72
2022-10-18T07:57:04.306Z,41.31
2022-10-18T07:58:06.970Z,41.85
2022-10-18T07:59:10.414Z,41.37
2022-10-18T08:00:13.747Z,41.07
2022-10-18T08:01:16.409Z,41.99
2022-10-18T08:02:19.178Z,43.85
2022-10-18T08:03:21.874Z,44.85
2022-10-18T08:04:24.516Z,40.45
2022-10-18T08:05:28.573Z,39.82
2022-10-18T08:06:31.356Z,44.01
2022-10-18T08:07:34.408Z,41.20
2022-10-18T08:08:39.259Z,40.97
2022-10-18T08:09:41.834Z,41.26
2022-10-18T08:10:44.499Z,39.33
2022-10-18T08:11:47.186Z,38.35
2022-10-18T08:12:50.693Z,39.42
2022-10-18T08:13:53.965Z,38.57
2022-10-18T08:14:56.653Z,38.04
2022-10-18T08:16:04.493Z,37.42
2022-10-18T08:17:07.137Z,37.26
2022-10-18T08:18:10.928Z,37.01
2022-10-18T08:19:13.453Z,37.91
2022-10-18T08:20:29.917Z,37.98
2022-10-18T08:21:33.673Z,38.48
2022-10-18T08:22:36.379Z,39.80
2022-10-18T08:23:40.222Z,37.63
2022-10-18T08:24:42.776Z,37.32
2022-10-18T08:25:46.848Z,37.25
2022-10-18T08:26:50.214Z,36.16
2022-10-18T08:27:53.039Z,37.93
2022-10-18T08:29:17.474Z,36.85
2022-10-18T08:30:19.836Z,37.21
2022-10-18T08:31:22.510Z,36.99
2022-10-18T08:32:28.740Z,36.94
2022-10-18T08:33:31.605Z,35.66
2022-10-18T08:35:58.469Z,34.00
2022-10-18T08:37:01.660Z,33.98
2022-10-18T08:38:04.434Z,34.43
2022-10-18T08:39:07.001Z,34.93
2022-10-18T08:40:13.473Z,34.64
2022-10-18T08:41:32.791Z,34.52
2022-10-18T08:43:00.203Z,33.48
2022-10-18T08:44:20.990Z,33.47
2022-10-18T08:45:41.063Z,32.71
2022-10-18T08:46:48.650Z,32.18
2022-10-18T08:47:54.101Z,34.20
2022-10-18T08:48:57.286Z,35.16
2022-10-18T08:50:04.945Z,35.51
2022-10-18T08:51:32.262Z,35.27
2022-10-18T08:52:46.073Z,34.21
2022-10-18T08:53:59.657Z,33.60
2022-10-18T08:55:10.138Z,33.44
2022-10-18T08:56:19.209Z,35.05
2022-10-18T08:57:22.600Z,34.07
2022-10-18T08:58:30.958Z,34.30
2022-10-18T08:59:41.281Z,33.89
2022-10-18T09:00:51.871Z,33.02
2022-10-18T09:02:05.154Z,34.45
2022-10-18T09:03:16.312Z,34.31
2022-10-18T09:04:27.834Z,33.13
2022-10-18T09:05:36.210Z,33.36
2022-10-18T09:06:44.464Z,33.62
2022-10-18T09:08:14.710Z,33.36
2022-10-18T09:09:50.964Z,34.32
2022-10-18T09:10:59.685Z,32.09
2022-10-18T09:12:26.262Z,32.12
2022-10-18T09:13:47.525Z,32.50
2022-10-18T09:15:11.983Z,33.99
2022-10-18T09:16:59.704Z,33.28
2022-10-18T09:18:13.948Z,32.94
2022-10-18T09:19:57.771Z,31.23
2022-10-18T09:21:05.548Z,31.92
2022-10-18T09:22:18.872Z,32.19
2022-10-18T09:23:29.735Z,31.99
2022-10-18T09:24:46.315Z,31.49
2022-10-18T09:25:53.406Z,31.87
2022-10-18T09:27:14.440Z,32.26
2022-10-18T09:28:59.110Z,31.53
2022-10-18T09:30:54.780Z,32.51
2022-10-18T09:32:33.745Z,32.53
2022-10-18T09:33:43.293Z,32.52
2022-10-18T09:35:06.524Z,31.25
2022-10-18T09:36:14.504Z,31.86
2022-10-18T09:37:21.952Z,32.23
2022-10-18T09:38:31.029Z,33.08
2022-10-18T09:39:38.240Z,32.59
2022-10-18T09:40:53.796Z,32.55
2022-10-18T09:42:15.237Z,32.36
2022-10-18T09:43:23.122Z,32.64
2022-10-18T09:44:33.668Z,30.69
2022-10-18T09:45:40.021Z,31.53
2022-10-18T09:46:49.220Z,29.67
2022-10-18T09:48:03.230Z,29.27
2022-10-18T09:49:21.485Z,29.20
2022-10-18T09:50:38.020Z,31.28
2022-10-18T09:51:42.856Z,30.89
2022-10-18T09:53:08.581Z,31.01
2022-10-18T09:54:44.110Z,31.50
2022-10-18T09:56:02.694Z,31.49
2022-10-18T09:57:12.676Z,31.99
2022-10-18T09:58:17.145Z,31.56
2022-10-18T09:59:42.694Z,31.73
2022-10-18T10:00:49.823Z,31.33
2022-10-18T10:01:52.684Z,32.29
2022-10-18T10:02:55.437Z,31.65
2022-10-18T10:03:58.466Z,30.61
2022-10-18T10:05:01.155Z,31.32
2022-10-18T10:06:13.169Z,31.59
2022-10-18T10:07:24.291Z,32.38
2022-10-18T10:08:33.945Z,30.42
2022-10-18T10:09:55.521Z,30.70
2022-10-18T10:10:58.165Z,30.21
2022-10-18T10:12:01.020Z,29.64
2022-10-18T10:13:03.627Z,28.44
2022-10-18T10:14:23.244Z,28.53
2022-10-18T10:15:31.235Z,30.37
2022-10-18T10:16:56.925Z,31.47
2022-10-18T10:18:03.793Z,30.57
2022-10-18T10:19:06.910Z,28.87
2022-10-18T10:20:21.919Z,28.97
2022-10-18T10:22:40.686Z,29.96
2022-10-18T10:23:54.772Z,28.73
2022-10-18T10:25:03.527Z,27.82
2022-10-18T10:26:23.577Z,28.66
2022-10-18T10:27:43.658Z,28.79
2022-10-18T10:28:49.151Z,27.23
2022-10-18T10:29:56.780Z,26.96
2022-10-18T10:31:27.283Z,26.45
2022-10-18T10:32:43.132Z,26.11
2022-10-18T10:33:47.789Z,26.68
2022-10-18T10:34:51.084Z,26.67
2022-10-18T10:35:59.910Z,26.64
2022-10-18T10:37:05.330Z,27.08
2022-10-18T10:38:22.384Z,27.11
2022-10-18T10:39:25.227Z,27.38
2022-10-18T10:40:34.191Z,27.17
2022-10-18T10:41:38.425Z,25.67
2022-10-18T10:43:32.869Z,26.41
2022-10-18T10:44:37.026Z,25.61
2022-10-18T10:46:15.463Z,26.53
2022-10-18T10:47:37.745Z,26.27
2022-10-18T10:49:08.406Z,25.25
2022-10-18T10:50:25.658Z,26.82
2022-10-18T10:51:31.696Z,27.09
2022-10-18T10:52:34.524Z,27.69
2022-10-18T10:53:42.709Z,27.94
2022-10-18T10:54:51.138Z,28.40
2022-10-18T10:55:56.853Z,29.42
2022-10-18T10:57:12.781Z,28.21
2022-10-18T10:58:18.495Z,29.11
2022-10-18T10:59:22.979Z,27.42
2022-10-18T11:00:44.626Z,27.14
2022-10-18T11:01:50.208Z,26.62
2022-10-18T11:03:34.311Z,26.96
2022-10-18T11:04:38.822Z,27.78
2022-10-18T11:05:47.296Z,28.92
2022-10-18T11:07:16.798Z,29.25
2022-10-18T11:08:36.028Z,27.98
2022-10-18T11:09:50.914Z,27.30
2022-10-18T11:11:03.318Z,27.54
2022-10-18T11:12:17.603Z,26.71
2022-10-18T11:13:28.600Z,27.17
2022-10-18T11:14:39.188Z,27.42
2022-10-18T11:15:47.775Z,26.60
2022-10-18T11:17:15.318Z,26.37
2022-10-18T11:18:24.836Z,26.89
2022-10-18T11:19:57.746Z,26.61
2022-10-18T11:21:18.804Z,26.76
2022-10-18T11:22:26.368Z,25.93
2022-10-18T11:23:33.596Z,25.89
2022-10-18T11:24:36.531Z,26.86
2022-10-18T11:25:42.046Z,24.95
2022-10-18T11:27:01.769Z,26.05
2022-10-18T11:28:10.732Z,24.92
2022-10-18T11:29:15.968Z,25.64
2022-10-18T11:30:44.214Z,26.19
2022-10-18T11:31:56.114Z,26.31
2022-10-18T11:33:56.398Z,27.16
2022-10-18T11:35:22.752Z,25.95
2022-10-18T11:36:36.576Z,25.93
2022-10-18T11:38:19.301Z,25.34
2022-10-18T11:39:27.784Z,24.98
2022-10-18T11:40:33.647Z,24.92
2022-10-18T11:41:47.676Z,25.52
2022-10-18T11:43:01.887Z,26.53
2022-10-18T11:44:16.485Z,26.89
2022-10-18T11:45:47.066Z,26.91
2022-10-18T11:46:49.526Z,27.29
2022-10-18T11:48:08.505Z,27.06
2022-10-18T11:49:17.931Z,26.86
2022-10-18T11:50:57.631Z,27.11
2022-10-18T11:52:13.713Z,26.29
2022-10-18T11:53:48.387Z,25.67
2022-10-18T11:55:03.435Z,24.90
2022-10-18T11:56:37.431Z,24.33
2022-10-18T11:58:08.132Z,24.46
2022-10-18T11:59:29.065Z,25.84
2022-10-18T12:01:06.831Z,26.10
2022-10-18T12:02:40.253Z,27.19
2022-10-18T12:03:42.861Z,27.02
2022-10-18T12:05:05.135Z,27.16
2022-10-18T12:06:20.954Z,27.78
2022-10-18T12:07:27.778Z,28.00
2022-10-18T12:08:40.112Z,27.78
2022-10-18T12:09:46.002Z,26.44
2022-10-18T12:11:04.185Z,26.92
2022-10-18T12:12:30.463Z,28.15
2022-10-18T12:13:39.661Z,26.45
2022-10-18T12:15:07.379Z,27.81
2022-10-18T12:16:11.092Z,27.64
2022-10-18T12:19:02.773Z,26.23
2022-10-18T12:20:16.272Z,26.81
2022-10-18T12:21:25.495Z,28.11
2022-10-18T12:22:50.306Z,27.52
2022-10-18T12:23:56.684Z,26.95
2022-10-18T12:24:59.916Z,26.71
2022-10-18T12:26:06.196Z,26.17
2022-10-18T12:27:14.060Z,26.66
2022-10-18T12:28:35.115Z,25.90
2022-10-18T12:29:50.678Z,25.60
2022-10-18T12:31:02.519Z,27.66
2022-10-18T12:32:14.728Z,27.24
2022-10-18T12:33:28.689Z,27.18
2022-10-18T12:34:49.341Z,26.69
2022-10-18T12:36:13.442Z,27.74
2022-10-18T12:37:43.377Z,27.21
2022-10-18T12:38:50.463Z,27.57
2022-10-18T12:40:10.506Z,27.72
2022-10-18T12:41:26.827Z,27.67
2022-10-18T12:42:32.497Z,27.82
2022-10-18T12:43:38.672Z,28.39
2022-10-18T12:44:41.308Z,27.43
2022-10-18T12:46:12.173Z,28.16
2022-10-18T12:47:25.526Z,28.54
2022-10-18T12:48:34.775Z,27.77
2022-10-18T12:49:41.457Z,26.72
2022-10-18T12:51:04.250Z,29.04
2022-10-18T12:52:21.273Z,27.16
2022-10-18T12:53:28.212Z,27.77
2022-10-18T12:54:34.701Z,28.49
2022-10-18T12:56:51.149Z,27.92
2022-10-18T12:57:53.965Z,28.58
2022-10-18T12:59:15.583Z,27.55
2022-10-18T13:00:30.446Z,27.98
2022-10-18T13:01:51.195Z,27.52
2022-10-18T13:03:12.185Z,29.32
2022-10-18T13:04:33.719Z,29.61
2022-10-18T13:05:53.291Z,29.39
2022-10-18T13:06:59.849Z,30.16
2022-10-18T13:08:31.868Z,28.61
2022-10-18T13:09:37.939Z,28.02
2022-10-18T13:10:41.924Z,28.18
2022-10-18T13:11:45.191Z,29.02
2022-10-18T13:13:38.727Z,29.52
2022-10-18T13:15:12.486Z,29.93
2022-10-18T13:16:45.950Z,28.52
2022-10-18T13:17:55.413Z,29.66
2022-10-18T13:19:19.402Z,29.50
2022-10-18T13:20:42.342Z,29.69
2022-10-18T13:22:00.205Z,29.73
2022-10-18T13:23:37.125Z,28.90
2022-10-18T13:25:02.485Z,29.23
2022-10-18T13:26:11.239Z,30.30
2022-10-18T13:27:35.889Z,30.63
2022-10-18T13:29:10.610Z,31.14
2022-10-18T13:30:32.491Z,30.45
2022-10-18T13:31:52.901Z,31.55
2022-10-18T13:33:13.989Z,29.56
2022-10-18T13:34:25.211Z,29.72
2022-10-18T13:35:49.628Z,30.10
2022-10-18T13:37:10.512Z,30.27
2022-10-18T13:38:34.873Z,30.06
2022-10-18T13:39:39.963Z,30.43
2022-10-18T13:40:42.620Z,31.04
2022-10-18T13:41:49.961Z,31.08
2022-10-18T13:42:53.707Z,31.27
2022-10-18T13:44:00.711Z,30.37
2022-10-18T13:45:31.652Z,29.83
2022-10-18T13:46:34.284Z,29.87
2022-10-18T13:47:38.299Z,30.53
2022-10-18T13:48:41.518Z,30.70
2022-10-18T13:50:21.363Z,30.70
2022-10-18T13:52:01.804Z,31.50
2022-10-18T13:53:25.756Z,31.19
2022-10-18T13:54:40.448Z,31.35
2022-10-18T13:56:15.253Z,31.60
2022-10-18T13:57:39.243Z,31.64
2022-10-18T13:59:23.726Z,31.45
2022-10-18T14:00:48.201Z,32.08
2022-10-18T14:02:10.690Z,32.33
2022-10-18T14:03:56.193Z,32.55
2022-10-18T14:05:25.136Z,32.52
2022-10-18T14:06:42.136Z,32.08
2022-10-18T14:07:46.372Z,32.40
2022-10-18T14:09:09.580Z,32.79
2022-10-18T14:10:50.308Z,33.15
2022-10-18T14:12:37.013Z,31.02
2022-10-18T14:13:52.830Z,32.38
2022-10-18T14:15:03.553Z,32.16
2022-10-18T14:16:22.660Z,32.67
2022-10-18T14:17:34.433Z,32.51
2022-10-18T14:18:43.089Z,32.65
2022-10-18T14:20:24.773Z,31.81
2022-10-18T14:21:38.463Z,31.85
2022-10-18T14:23:05.342Z,31.68
2022-10-18T14:24:20.740Z,32.00
2022-10-18T14:25:32.586Z,31.29
2022-10-18T14:26:35.298Z,31.75
2022-10-18T14:27:38.001Z,32.02
2022-10-18T14:29:00.284Z,33.64
2022-10-18T14:30:20.003Z,34.26
2022-10-18T14:31:22.774Z,32.99
2022-10-18T14:32:27.348Z,32.21
2022-10-18T14:33:39.037Z,32.71
2022-10-18T14:34:44.359Z,32.15
2022-10-18T14:35:59.842Z,32.90
2022-10-18T14:37:02.682Z,32.63
2022-10-18T14:38:13.907Z,33.25
2022-10-18T14:39:27.651Z,33.71
2022-10-18T14:40:33.409Z,33.17
2022-10-18T14:41:47.476Z,33.52
2022-10-18T14:42:50.177Z,33.55
2022-10-18T14:44:09.989Z,33.88
2022-10-18T14:45:19.733Z,34.54
2022-10-18T14:46:30.027Z,34.05
2022-10-18T14:47:37.503Z,34.24
2022-10-18T14:48:40.403Z,33.91
2022-10-18T14:49:44.955Z,34.43
2022-10-18T14:50:59.604Z,33.81
2022-10-18T14:52:02.394Z,34.25
2022-10-18T14:53:07.665Z,34.79
2022-10-18T14:54:16.886Z,35.22
2022-10-18T14:55:33.233Z,34.53
2022-10-18T14:56:41.620Z,34.49
2022-10-18T14:57:45.807Z,34.40
2022-10-18T14:58:52.518Z,35.02
2022-10-18T15:00:02.151Z,34.91
2022-10-18T15:01:05.440Z,35.05
2022-10-18T15:02:17.834Z,35.53